sensor_id;sensor_type;location;lat;lon;timestamp;P1;durP1;ratioP1;P2;durP2;ratioP2
4397;SDS011;2213;49.720;7.296;2023-06-14T00:01:17;7.03;;;3.83;;
4397;SDS011;2213;49.720;7.296;2023-06-14T00:03:49;6.40;;;3.90;;
4397;SDS011;2213;49.720;7.296;2023-06-14T00:06:19;7.40;;;4.10;;
4397;SDS011;2213;49.720;7.296;2023-06-14T00:08:48;5.83;;;3.70;;
4397;SDS011;2213;49.720;7.296;2023-06-14T00:11:18;7.87;;;3.97;;
4397;SDS011;2213;49.720;7.296;2023-06-14T00:13:46;6.83;;;3.30;;
4397;SDS011;2213;49.720;7.296;2023-06-14T00:16:15;6.03;;;3.67;;
4397;SDS011;2213;49.720;7.296;2023-06-14T00:18:46;7.47;;;3.77;;
4397;SDS011;2213;49.720;7.296;2023-06-14T00:21:15;5.70;;;4.20;;
4397;SDS011;2213;49.720;7.296;2023-06-14T00:23:47;4.17;;;3.70;;
4397;SDS011;2213;49.720;7.296;2023-06-14T00:26:17;4.60;;;3.70;;
4397;SDS011;2213;49.720;7.296;2023-06-14T00:28:45;5.83;;;3.80;;
4397;SDS011;2213;49.720;7.296;2023-06-14T00:31:14;6.73;;;3.67;;
4397;SDS011;2213;49.720;7.296;2023-06-14T00:33:43;6.87;;;4.07;;
4397;SDS011;2213;49.720;7.296;2023-06-14T00:36:12;12.20;;;3.97;;
4397;SDS011;2213;49.720;7.296;2023-06-14T00:38:41;6.07;;;4.20;;
4397;SDS011;2213;49.720;7.296;2023-06-14T00:41:11;5.17;;;3.87;;
4397;SDS011;2213;49.720;7.296;2023-06-14T00:43:40;5.13;;;3.60;;
4397;SDS011;2213;49.720;7.296;2023-06-14T00:46:09;5.27;;;3.33;;
4397;SDS011;2213;49.720;7.296;2023-06-14T00:48:38;7.27;;;4.40;;
4397;SDS011;2213;49.720;7.296;2023-06-14T00:51:08;6.87;;;4.30;;
4397;SDS011;2213;49.720;7.296;2023-06-14T00:53:37;5.40;;;3.50;;
4397;SDS011;2213;49.720;7.296;2023-06-14T00:56:07;7.00;;;4.10;;
4397;SDS011;2213;49.720;7.296;2023-06-14T00:58:41;5.10;;;4.03;;
4397;SDS011;2213;49.720;7.296;2023-06-14T01:01:11;6.83;;;4.00;;
4397;SDS011;2213;49.720;7.296;2023-06-14T01:03:41;7.57;;;4.63;;
4397;SDS011;2213;49.720;7.296;2023-06-14T01:06:12;8.67;;;3.90;;
4397;SDS011;2213;49.720;7.296;2023-06-14T01:08:57;9.43;;;4.07;;
4397;SDS011;2213;49.720;7.296;2023-06-14T01:11:38;6.80;;;3.60;;
4397;SDS011;2213;49.720;7.296;2023-06-14T01:14:19;5.03;;;3.70;;
4397;SDS011;2213;49.720;7.296;2023-06-14T01:16:49;8.13;;;4.07;;
4397;SDS011;2213;49.720;7.296;2023-06-14T01:19:20;8.47;;;4.17;;
4397;SDS011;2213;49.720;7.296;2023-06-14T01:21:52;6.17;;;4.10;;
4397;SDS011;2213;49.720;7.296;2023-06-14T01:24:24;6.17;;;3.73;;
4397;SDS011;2213;49.720;7.296;2023-06-14T01:26:59;7.10;;;4.17;;
4397;SDS011;2213;49.720;7.296;2023-06-14T01:29:30;5.83;;;3.93;;
4397;SDS011;2213;49.720;7.296;2023-06-14T01:31:59;4.73;;;3.60;;
4397;SDS011;2213;49.720;7.296;2023-06-14T01:34:30;5.10;;;3.80;;
4397;SDS011;2213;49.720;7.296;2023-06-14T01:36:59;7.20;;;4.27;;
4397;SDS011;2213;49.720;7.296;2023-06-14T01:39:31;4.70;;;3.47;;
4397;SDS011;2213;49.720;7.296;2023-06-14T01:42:02;8.97;;;3.57;;
4397;SDS011;2213;49.720;7.296;2023-06-14T01:44:33;10.10;;;4.37;;
4397;SDS011;2213;49.720;7.296;2023-06-14T01:47:02;6.87;;;3.90;;
4397;SDS011;2213;49.720;7.296;2023-06-14T01:49:33;4.80;;;3.53;;
4397;SDS011;2213;49.720;7.296;2023-06-14T01:52:02;8.53;;;4.20;;
4397;SDS011;2213;49.720;7.296;2023-06-14T01:54:34;5.77;;;3.70;;
4397;SDS011;2213;49.720;7.296;2023-06-14T01:57:08;5.73;;;4.30;;
4397;SDS011;2213;49.720;7.296;2023-06-14T01:59:38;5.43;;;3.93;;
4397;SDS011;2213;49.720;7.296;2023-06-14T02:02:06;5.20;;;3.90;;
4397;SDS011;2213;49.720;7.296;2023-06-14T02:04:35;4.50;;;3.50;;
4397;SDS011;2213;49.720;7.296;2023-06-14T02:07:04;5.23;;;4.33;;
4397;SDS011;2213;49.720;7.296;2023-06-14T02:09:34;6.30;;;4.07;;
4397;SDS011;2213;49.720;7.296;2023-06-14T02:12:04;7.10;;;4.40;;
4397;SDS011;2213;49.720;7.296;2023-06-14T02:14:34;5.57;;;4.23;;
4397;SDS011;2213;49.720;7.296;2023-06-14T02:17:02;6.27;;;3.73;;
4397;SDS011;2213;49.720;7.296;2023-06-14T02:19:32;4.80;;;3.80;;
4397;SDS011;2213;49.720;7.296;2023-06-14T02:22:01;7.87;;;4.43;;
4397;SDS011;2213;49.720;7.296;2023-06-14T02:24:30;9.43;;;4.20;;
4397;SDS011;2213;49.720;7.296;2023-06-14T02:27:01;5.67;;;3.80;;
4397;SDS011;2213;49.720;7.296;2023-06-14T02:29:30;6.43;;;3.47;;
4397;SDS011;2213;49.720;7.296;2023-06-14T02:31:59;6.83;;;4.20;;
4397;SDS011;2213;49.720;7.296;2023-06-14T02:34:27;8.10;;;4.20;;
4397;SDS011;2213;49.720;7.296;2023-06-14T02:36:56;6.27;;;3.77;;
4397;SDS011;2213;49.720;7.296;2023-06-14T02:39:26;6.37;;;4.20;;
4397;SDS011;2213;49.720;7.296;2023-06-14T02:41:55;6.43;;;4.23;;
4397;SDS011;2213;49.720;7.296;2023-06-14T02:44:25;7.40;;;3.97;;
4397;SDS011;2213;49.720;7.296;2023-06-14T02:46:54;7.80;;;4.90;;
4397;SDS011;2213;49.720;7.296;2023-06-14T02:49:25;4.40;;;3.60;;
4397;SDS011;2213;49.720;7.296;2023-06-14T02:51:54;10.97;;;4.27;;
4397;SDS011;2213;49.720;7.296;2023-06-14T02:54:23;4.63;;;3.80;;
4397;SDS011;2213;49.720;7.296;2023-06-14T02:56:51;9.33;;;4.50;;
4397;SDS011;2213;49.720;7.296;2023-06-14T02:59:20;5.07;;;3.50;;
4397;SDS011;2213;49.720;7.296;2023-06-14T03:01:52;5.27;;;4.20;;
4397;SDS011;2213;49.720;7.296;2023-06-14T03:04:23;6.97;;;4.10;;
4397;SDS011;2213;49.720;7.296;2023-06-14T03:06:52;6.93;;;4.03;;
4397;SDS011;2213;49.720;7.296;2023-06-14T03:09:21;24.80;;;14.17;;
4397;SDS011;2213;49.720;7.296;2023-06-14T03:11:50;7.47;;;4.90;;
4397;SDS011;2213;49.720;7.296;2023-06-14T03:14:18;7.70;;;4.50;;
4397;SDS011;2213;49.720;7.296;2023-06-14T03:16:47;6.20;;;4.03;;
4397;SDS011;2213;49.720;7.296;2023-06-14T03:19:25;6.10;;;3.80;;
4397;SDS011;2213;49.720;7.296;2023-06-14T03:21:54;5.50;;;4.43;;
4397;SDS011;2213;49.720;7.296;2023-06-14T03:24:24;4.80;;;3.80;;
4397;SDS011;2213;49.720;7.296;2023-06-14T03:26:56;6.30;;;3.97;;
4397;SDS011;2213;49.720;7.296;2023-06-14T03:29:25;7.33;;;4.73;;
4397;SDS011;2213;49.720;7.296;2023-06-14T03:31:57;6.20;;;4.63;;
4397;SDS011;2213;49.720;7.296;2023-06-14T03:34:29;5.93;;;4.10;;
4397;SDS011;2213;49.720;7.296;2023-06-14T03:36:58;4.53;;;3.83;;
4397;SDS011;2213;49.720;7.296;2023-06-14T03:39:27;5.80;;;4.23;;
4397;SDS011;2213;49.720;7.296;2023-06-14T03:41:56;5.30;;;3.77;;
4397;SDS011;2213;49.720;7.296;2023-06-14T03:44:26;7.63;;;3.90;;
4397;SDS011;2213;49.720;7.296;2023-06-14T03:46:55;6.10;;;4.00;;
4397;SDS011;2213;49.720;7.296;2023-06-14T03:49:24;6.97;;;4.30;;
4397;SDS011;2213;49.720;7.296;2023-06-14T03:51:54;7.30;;;3.97;;
4397;SDS011;2213;49.720;7.296;2023-06-14T03:54:23;5.77;;;4.10;;
4397;SDS011;2213;49.720;7.296;2023-06-14T03:57:14;5.97;;;4.40;;
4397;SDS011;2213;49.720;7.296;2023-06-14T03:59:43;6.03;;;4.00;;
4397;SDS011;2213;49.720;7.296;2023-06-14T04:02:11;6.07;;;3.70;;
4397;SDS011;2213;49.720;7.296;2023-06-14T04:04:41;10.90;;;4.70;;
4397;SDS011;2213;49.720;7.296;2023-06-14T04:07:13;16.83;;;4.43;;
4397;SDS011;2213;49.720;7.296;2023-06-14T04:09:45;7.87;;;4.50;;
4397;SDS011;2213;49.720;7.296;2023-06-14T04:12:14;7.00;;;4.50;;
4397;SDS011;2213;49.720;7.296;2023-06-14T04:14:43;5.97;;;4.40;;
4397;SDS011;2213;49.720;7.296;2023-06-14T04:17:12;6.60;;;4.50;;
4397;SDS011;2213;49.720;7.296;2023-06-14T04:19:41;6.07;;;4.30;;
4397;SDS011;2213;49.720;7.296;2023-06-14T04:22:10;21.47;;;4.57;;
4397;SDS011;2213;49.720;7.296;2023-06-14T04:24:41;23.37;;;4.57;;
4397;SDS011;2213;49.720;7.296;2023-06-14T04:27:15;6.13;;;4.03;;
4397;SDS011;2213;49.720;7.296;2023-06-14T04:29:49;6.73;;;4.07;;
4397;SDS011;2213;49.720;7.296;2023-06-14T04:32:20;10.83;;;6.30;;
4397;SDS011;2213;49.720;7.296;2023-06-14T04:34:52;12.93;;;4.67;;
4397;SDS011;2213;49.720;7.296;2023-06-14T04:37:24;11.35;;;4.30;;
4397;SDS011;2213;49.720;7.296;2023-06-14T04:39:54;7.40;;;4.20;;
4397;SDS011;2213;49.720;7.296;2023-06-14T04:42:24;6.87;;;4.50;;
4397;SDS011;2213;49.720;7.296;2023-06-14T04:44:57;5.13;;;4.10;;
4397;SDS011;2213;49.720;7.296;2023-06-14T04:47:27;11.10;;;4.40;;
4397;SDS011;2213;49.720;7.296;2023-06-14T04:49:57;9.40;;;4.13;;
4397;SDS011;2213;49.720;7.296;2023-06-14T04:52:28;6.17;;;4.07;;
4397;SDS011;2213;49.720;7.296;2023-06-14T04:54:58;6.50;;;4.10;;
4397;SDS011;2213;49.720;7.296;2023-06-14T04:57:28;6.13;;;4.10;;
4397;SDS011;2213;49.720;7.296;2023-06-14T04:59:59;4.87;;;3.63;;
4397;SDS011;2213;49.720;7.296;2023-06-14T05:02:30;8.03;;;4.33;;
4397;SDS011;2213;49.720;7.296;2023-06-14T05:05:00;5.20;;;4.13;;
4397;SDS011;2213;49.720;7.296;2023-06-14T05:07:31;9.10;;;4.50;;
4397;SDS011;2213;49.720;7.296;2023-06-14T05:10:00;8.73;;;4.37;;
4397;SDS011;2213;49.720;7.296;2023-06-14T05:12:30;5.70;;;4.10;;
4397;SDS011;2213;49.720;7.296;2023-06-14T05:15:00;12.10;;;4.00;;
4397;SDS011;2213;49.720;7.296;2023-06-14T05:17:30;7.33;;;4.73;;
4397;SDS011;2213;49.720;7.296;2023-06-14T05:19:59;5.73;;;3.80;;
4397;SDS011;2213;49.720;7.296;2023-06-14T05:22:28;9.50;;;3.73;;
4397;SDS011;2213;49.720;7.296;2023-06-14T05:24:59;6.87;;;4.60;;
4397;SDS011;2213;49.720;7.296;2023-06-14T05:27:27;7.80;;;4.30;;
4397;SDS011;2213;49.720;7.296;2023-06-14T05:29:56;5.83;;;4.30;;
4397;SDS011;2213;49.720;7.296;2023-06-14T05:32:26;6.13;;;4.00;;
4397;SDS011;2213;49.720;7.296;2023-06-14T05:34:54;10.07;;;4.43;;
4397;SDS011;2213;49.720;7.296;2023-06-14T05:37:23;4.73;;;3.93;;
4397;SDS011;2213;49.720;7.296;2023-06-14T05:39:54;12.27;;;4.80;;
4397;SDS011;2213;49.720;7.296;2023-06-14T05:42:23;6.87;;;4.83;;
4397;SDS011;2213;49.720;7.296;2023-06-14T05:44:53;6.87;;;4.20;;
4397;SDS011;2213;49.720;7.296;2023-06-14T05:47:23;5.40;;;4.10;;
4397;SDS011;2213;49.720;7.296;2023-06-14T05:49:52;6.23;;;4.13;;
4397;SDS011;2213;49.720;7.296;2023-06-14T05:52:20;9.40;;;4.80;;
4397;SDS011;2213;49.720;7.296;2023-06-14T05:54:50;6.23;;;4.07;;
4397;SDS011;2213;49.720;7.296;2023-06-14T05:57:20;9.30;;;4.47;;
4397;SDS011;2213;49.720;7.296;2023-06-14T05:59:49;6.20;;;4.80;;
4397;SDS011;2213;49.720;7.296;2023-06-14T06:02:18;6.23;;;4.53;;
4397;SDS011;2213;49.720;7.296;2023-06-14T06:04:48;8.03;;;4.93;;
4397;SDS011;2213;49.720;7.296;2023-06-14T06:07:17;5.83;;;3.80;;
4397;SDS011;2213;49.720;7.296;2023-06-14T06:09:47;8.90;;;4.87;;
4397;SDS011;2213;49.720;7.296;2023-06-14T06:12:28;8.50;;;4.60;;
4397;SDS011;2213;49.720;7.296;2023-06-14T06:14:56;11.90;;;4.17;;
4397;SDS011;2213;49.720;7.296;2023-06-14T06:17:25;8.23;;;3.63;;
4397;SDS011;2213;49.720;7.296;2023-06-14T06:20:11;5.83;;;3.30;;
4397;SDS011;2213;49.720;7.296;2023-06-14T06:22:40;4.30;;;3.27;;
4397;SDS011;2213;49.720;7.296;2023-06-14T06:25:09;5.23;;;3.80;;
4397;SDS011;2213;49.720;7.296;2023-06-14T06:27:39;16.53;;;4.40;;
4397;SDS011;2213;49.720;7.296;2023-06-14T06:30:09;4.93;;;3.77;;
4397;SDS011;2213;49.720;7.296;2023-06-14T06:32:40;7.60;;;4.17;;
4397;SDS011;2213;49.720;7.296;2023-06-14T06:35:09;8.23;;;3.70;;
4397;SDS011;2213;49.720;7.296;2023-06-14T06:37:39;4.60;;;3.33;;
4397;SDS011;2213;49.720;7.296;2023-06-14T06:40:10;4.83;;;3.30;;
4397;SDS011;2213;49.720;7.296;2023-06-14T06:42:41;12.00;;;3.97;;
4397;SDS011;2213;49.720;7.296;2023-06-14T06:45:10;5.03;;;3.30;;
4397;SDS011;2213;49.720;7.296;2023-06-14T06:47:40;5.07;;;3.77;;
4397;SDS011;2213;49.720;7.296;2023-06-14T06:50:09;9.50;;;4.27;;
4397;SDS011;2213;49.720;7.296;2023-06-14T06:52:38;5.60;;;3.50;;
4397;SDS011;2213;49.720;7.296;2023-06-14T06:55:07;5.20;;;3.67;;
4397;SDS011;2213;49.720;7.296;2023-06-14T06:57:41;8.87;;;3.63;;
4397;SDS011;2213;49.720;7.296;2023-06-14T07:00:11;9.10;;;3.10;;
4397;SDS011;2213;49.720;7.296;2023-06-14T07:02:41;8.57;;;3.40;;
4397;SDS011;2213;49.720;7.296;2023-06-14T07:05:11;16.23;;;3.87;;
4397;SDS011;2213;49.720;7.296;2023-06-14T07:07:41;5.53;;;3.53;;
4397;SDS011;2213;49.720;7.296;2023-06-14T07:10:09;7.07;;;3.37;;
4397;SDS011;2213;49.720;7.296;2023-06-14T07:12:38;5.43;;;3.50;;
4397;SDS011;2213;49.720;7.296;2023-06-14T07:15:09;5.30;;;3.57;;
4397;SDS011;2213;49.720;7.296;2023-06-14T07:17:39;6.17;;;3.53;;
4397;SDS011;2213;49.720;7.296;2023-06-14T07:20:09;6.43;;;3.60;;
4397;SDS011;2213;49.720;7.296;2023-06-14T07:22:40;10.43;;;3.53;;
4397;SDS011;2213;49.720;7.296;2023-06-14T07:25:10;6.47;;;3.50;;
4397;SDS011;2213;49.720;7.296;2023-06-14T07:27:45;6.27;;;4.00;;
4397;SDS011;2213;49.720;7.296;2023-06-14T07:30:15;7.47;;;4.07;;
4397;SDS011;2213;49.720;7.296;2023-06-14T07:32:45;6.00;;;3.77;;
4397;SDS011;2213;49.720;7.296;2023-06-14T07:35:16;10.03;;;3.40;;
4397;SDS011;2213;49.720;7.296;2023-06-14T07:37:44;8.53;;;3.37;;
4397;SDS011;2213;49.720;7.296;2023-06-14T07:40:13;6.63;;;3.40;;
4397;SDS011;2213;49.720;7.296;2023-06-14T07:42:44;5.43;;;3.20;;
4397;SDS011;2213;49.720;7.296;2023-06-14T07:45:13;5.90;;;3.27;;
4397;SDS011;2213;49.720;7.296;2023-06-14T07:47:43;4.00;;;3.43;;
4397;SDS011;2213;49.720;7.296;2023-06-14T07:50:12;5.60;;;3.67;;
4397;SDS011;2213;49.720;7.296;2023-06-14T07:52:41;9.40;;;3.37;;
4397;SDS011;2213;49.720;7.296;2023-06-14T07:55:10;6.73;;;3.93;;
4397;SDS011;2213;49.720;7.296;2023-06-14T07:57:39;5.53;;;3.93;;
4397;SDS011;2213;49.720;7.296;2023-06-14T08:00:11;9.13;;;3.83;;
4397;SDS011;2213;49.720;7.296;2023-06-14T08:02:42;10.73;;;3.80;;
4397;SDS011;2213;49.720;7.296;2023-06-14T08:05:12;8.60;;;3.13;;
4397;SDS011;2213;49.720;7.296;2023-06-14T08:07:42;22.00;;;3.53;;
4397;SDS011;2213;49.720;7.296;2023-06-14T08:10:11;6.93;;;2.90;;
4397;SDS011;2213;49.720;7.296;2023-06-14T08:12:41;4.40;;;2.80;;
4397;SDS011;2213;49.720;7.296;2023-06-14T08:15:12;5.50;;;3.10;;
4397;SDS011;2213;49.720;7.296;2023-06-14T08:17:42;6.53;;;3.50;;
4397;SDS011;2213;49.720;7.296;2023-06-14T08:20:11;5.10;;;3.30;;
4397;SDS011;2213;49.720;7.296;2023-06-14T08:22:43;4.17;;;3.10;;
4397;SDS011;2213;49.720;7.296;2023-06-14T08:25:13;6.93;;;3.33;;
4397;SDS011;2213;49.720;7.296;2023-06-14T08:27:42;4.97;;;3.17;;
4397;SDS011;2213;49.720;7.296;2023-06-14T08:30:13;4.80;;;3.47;;
4397;SDS011;2213;49.720;7.296;2023-06-14T08:32:44;4.83;;;3.50;;
4397;SDS011;2213;49.720;7.296;2023-06-14T08:35:21;5.80;;;3.30;;
4397;SDS011;2213;49.720;7.296;2023-06-14T08:37:50;6.70;;;3.77;;
4397;SDS011;2213;49.720;7.296;2023-06-14T08:40:20;5.83;;;3.40;;
4397;SDS011;2213;49.720;7.296;2023-06-14T08:42:52;7.60;;;3.13;;
4397;SDS011;2213;49.720;7.296;2023-06-14T08:45:24;6.17;;;3.57;;
4397;SDS011;2213;49.720;7.296;2023-06-14T08:47:56;7.03;;;3.73;;
4397;SDS011;2213;49.720;7.296;2023-06-14T08:50:27;5.47;;;3.13;;
4397;SDS011;2213;49.720;7.296;2023-06-14T08:52:59;5.40;;;3.40;;
4397;SDS011;2213;49.720;7.296;2023-06-14T08:55:31;5.97;;;3.30;;
4397;SDS011;2213;49.720;7.296;2023-06-14T08:58:03;5.37;;;3.23;;
4397;SDS011;2213;49.720;7.296;2023-06-14T09:00:34;8.20;;;3.10;;
4397;SDS011;2213;49.720;7.296;2023-06-14T09:03:05;4.53;;;3.00;;
4397;SDS011;2213;49.720;7.296;2023-06-14T09:05:40;4.37;;;2.90;;
4397;SDS011;2213;49.720;7.296;2023-06-14T09:08:08;3.77;;;2.73;;
4397;SDS011;2213;49.720;7.296;2023-06-14T09:10:38;6.73;;;2.80;;
4397;SDS011;2213;49.720;7.296;2023-06-14T09:13:08;6.03;;;3.00;;
4397;SDS011;2213;49.720;7.296;2023-06-14T09:15:38;8.90;;;2.80;;
4397;SDS011;2213;49.720;7.296;2023-06-14T09:18:08;9.37;;;2.70;;
4397;SDS011;2213;49.720;7.296;2023-06-14T09:20:36;4.83;;;3.07;;
4397;SDS011;2213;49.720;7.296;2023-06-14T09:23:05;2.90;;;2.60;;
4397;SDS011;2213;49.720;7.296;2023-06-14T09:25:41;6.90;;;2.90;;
4397;SDS011;2213;49.720;7.296;2023-06-14T09:28:11;9.50;;;2.63;;
4397;SDS011;2213;49.720;7.296;2023-06-14T09:30:42;8.53;;;2.90;;
4397;SDS011;2213;49.720;7.296;2023-06-14T09:33:16;3.20;;;2.63;;
4397;SDS011;2213;49.720;7.296;2023-06-14T09:35:45;3.20;;;2.53;;
4397;SDS011;2213;49.720;7.296;2023-06-14T09:38:19;10.00;;;3.10;;
4397;SDS011;2213;49.720;7.296;2023-06-14T09:40:49;4.90;;;2.83;;
4397;SDS011;2213;49.720;7.296;2023-06-14T09:43:18;11.33;;;2.87;;
4397;SDS011;2213;49.720;7.296;2023-06-14T09:45:50;7.27;;;2.63;;
4397;SDS011;2213;49.720;7.296;2023-06-14T09:48:22;4.27;;;2.70;;
4397;SDS011;2213;49.720;7.296;2023-06-14T09:50:51;8.97;;;2.93;;
4397;SDS011;2213;49.720;7.296;2023-06-14T09:53:23;8.67;;;3.20;;
4397;SDS011;2213;49.720;7.296;2023-06-14T09:55:56;5.03;;;2.73;;
4397;SDS011;2213;49.720;7.296;2023-06-14T09:58:26;3.40;;;2.60;;
4397;SDS011;2213;49.720;7.296;2023-06-14T10:01:00;5.33;;;2.30;;
4397;SDS011;2213;49.720;7.296;2023-06-14T10:03:32;6.20;;;2.70;;
4397;SDS011;2213;49.720;7.296;2023-06-14T10:06:22;5.40;;;3.40;;
4397;SDS011;2213;49.720;7.296;2023-06-14T10:08:54;5.20;;;2.70;;
4397;SDS011;2213;49.720;7.296;2023-06-14T10:11:28;4.57;;;2.83;;
4397;SDS011;2213;49.720;7.296;2023-06-14T10:13:57;5.07;;;2.80;;
4397;SDS011;2213;49.720;7.296;2023-06-14T10:16:28;4.57;;;2.80;;
4397;SDS011;2213;49.720;7.296;2023-06-14T10:19:04;3.80;;;2.60;;
4397;SDS011;2213;49.720;7.296;2023-06-14T10:21:46;6.93;;;2.60;;
4397;SDS011;2213;49.720;7.296;2023-06-14T10:24:26;3.93;;;2.77;;
4397;SDS011;2213;49.720;7.296;2023-06-14T10:27:00;4.07;;;2.43;;
4397;SDS011;2213;49.720;7.296;2023-06-14T10:29:29;5.30;;;4.00;;
4397;SDS011;2213;49.720;7.296;2023-06-14T10:32:00;3.93;;;2.53;;
4397;SDS011;2213;49.720;7.296;2023-06-14T10:34:30;6.60;;;2.30;;
4397;SDS011;2213;49.720;7.296;2023-06-14T10:37:03;3.50;;;2.40;;
4397;SDS011;2213;49.720;7.296;2023-06-14T10:39:37;3.37;;;2.60;;
4397;SDS011;2213;49.720;7.296;2023-06-14T10:42:08;3.73;;;2.37;;
4397;SDS011;2213;49.720;7.296;2023-06-14T10:44:39;6.57;;;2.90;;
4397;SDS011;2213;49.720;7.296;2023-06-14T10:50:08;3.80;;;2.80;;
4397;SDS011;2213;49.720;7.296;2023-06-14T10:52:42;6.63;;;2.77;;
4397;SDS011;2213;49.720;7.296;2023-06-14T10:55:13;2.90;;;2.40;;
4397;SDS011;2213;49.720;7.296;2023-06-14T10:57:46;5.33;;;1.90;;
4397;SDS011;2213;49.720;7.296;2023-06-14T11:00:21;7.10;;;2.23;;
4397;SDS011;2213;49.720;7.296;2023-06-14T11:06:20;5.87;;;2.30;;
4397;SDS011;2213;49.720;7.296;2023-06-14T11:12:10;4.13;;;2.77;;
4397;SDS011;2213;49.720;7.296;2023-06-14T11:14:40;9.17;;;3.17;;
4397;SDS011;2213;49.720;7.296;2023-06-14T11:17:08;4.67;;;2.77;;
4397;SDS011;2213;49.720;7.296;2023-06-14T11:19:41;5.47;;;2.20;;
4397;SDS011;2213;49.720;7.296;2023-06-14T11:22:12;6.43;;;2.10;;
4397;SDS011;2213;49.720;7.296;2023-06-14T11:24:42;2.80;;;2.23;;
4397;SDS011;2213;49.720;7.296;2023-06-14T11:27:11;3.60;;;2.43;;
4397;SDS011;2213;49.720;7.296;2023-06-14T11:29:47;6.43;;;2.50;;
4397;SDS011;2213;49.720;7.296;2023-06-14T11:32:16;5.77;;;2.70;;
4397;SDS011;2213;49.720;7.296;2023-06-14T11:34:47;3.37;;;2.70;;
4397;SDS011;2213;49.720;7.296;2023-06-14T11:37:17;12.13;;;2.33;;
4397;SDS011;2213;49.720;7.296;2023-06-14T11:39:47;2.80;;;2.03;;
4397;SDS011;2213;49.720;7.296;2023-06-14T11:42:16;4.93;;;2.63;;
4397;SDS011;2213;49.720;7.296;2023-06-14T11:44:45;6.37;;;2.63;;
4397;SDS011;2213;49.720;7.296;2023-06-14T11:47:15;4.00;;;2.50;;
4397;SDS011;2213;49.720;7.296;2023-06-14T11:49:43;2.70;;;2.20;;
4397;SDS011;2213;49.720;7.296;2023-06-14T11:52:13;4.60;;;2.53;;
4397;SDS011;2213;49.720;7.296;2023-06-14T11:54:42;4.57;;;3.17;;
4397;SDS011;2213;49.720;7.296;2023-06-14T11:57:11;3.03;;;1.80;;
4397;SDS011;2213;49.720;7.296;2023-06-14T11:59:41;4.23;;;2.40;;
4397;SDS011;2213;49.720;7.296;2023-06-14T12:02:13;6.20;;;2.50;;
4397;SDS011;2213;49.720;7.296;2023-06-14T12:04:43;4.10;;;2.60;;
4397;SDS011;2213;49.720;7.296;2023-06-14T12:07:16;17.30;;;2.67;;
4397;SDS011;2213;49.720;7.296;2023-06-14T12:12:37;1.90;;;1.70;;
4397;SDS011;2213;49.720;7.296;2023-06-14T12:15:08;3.60;;;2.33;;
4397;SDS011;2213;49.720;7.296;2023-06-14T12:17:41;3.33;;;2.30;;
4397;SDS011;2213;49.720;7.296;2023-06-14T12:20:11;2.50;;;2.07;;
4397;SDS011;2213;49.720;7.296;2023-06-14T12:22:54;6.13;;;2.13;;
4397;SDS011;2213;49.720;7.296;2023-06-14T12:25:26;3.90;;;2.23;;
4397;SDS011;2213;49.720;7.296;2023-06-14T12:27:57;6.23;;;2.20;;
4397;SDS011;2213;49.720;7.296;2023-06-14T12:30:32;2.50;;;2.00;;
4397;SDS011;2213;49.720;7.296;2023-06-14T12:33:03;3.17;;;2.20;;
4397;SDS011;2213;49.720;7.296;2023-06-14T12:35:33;10.80;;;2.20;;
4397;SDS011;2213;49.720;7.296;2023-06-14T12:38:04;3.50;;;2.23;;
4397;SDS011;2213;49.720;7.296;2023-06-14T12:40:32;8.10;;;2.37;;
4397;SDS011;2213;49.720;7.296;2023-06-14T12:43:04;7.80;;;2.30;;
4397;SDS011;2213;49.720;7.296;2023-06-14T12:45:33;2.40;;;2.10;;
4397;SDS011;2213;49.720;7.296;2023-06-14T12:48:02;3.60;;;2.50;;
4397;SDS011;2213;49.720;7.296;2023-06-14T12:50:31;4.27;;;2.03;;
4397;SDS011;2213;49.720;7.296;2023-06-14T12:53:00;3.40;;;2.27;;
4397;SDS011;2213;49.720;7.296;2023-06-14T12:55:30;3.93;;;2.33;;
4397;SDS011;2213;49.720;7.296;2023-06-14T12:58:00;4.00;;;1.87;;
4397;SDS011;2213;49.720;7.296;2023-06-14T13:00:29;2.80;;;2.20;;
4397;SDS011;2213;49.720;7.296;2023-06-14T13:02:58;5.63;;;2.10;;
4397;SDS011;2213;49.720;7.296;2023-06-14T13:05:27;7.20;;;2.20;;
4397;SDS011;2213;49.720;7.296;2023-06-14T13:07:57;4.80;;;2.50;;
4397;SDS011;2213;49.720;7.296;2023-06-14T13:10:27;2.93;;;2.13;;
4397;SDS011;2213;49.720;7.296;2023-06-14T13:12:57;4.50;;;2.00;;
4397;SDS011;2213;49.720;7.296;2023-06-14T13:15:26;3.20;;;2.00;;
4397;SDS011;2213;49.720;7.296;2023-06-14T13:17:55;4.03;;;2.10;;
4397;SDS011;2213;49.720;7.296;2023-06-14T13:20:24;3.93;;;2.20;;
4397;SDS011;2213;49.720;7.296;2023-06-14T13:22:52;4.53;;;2.50;;
4397;SDS011;2213;49.720;7.296;2023-06-14T13:25:21;3.53;;;2.23;;
4397;SDS011;2213;49.720;7.296;2023-06-14T13:27:50;56.53;;;2.73;;
4397;SDS011;2213;49.720;7.296;2023-06-14T13:30:20;4.57;;;1.83;;
4397;SDS011;2213;49.720;7.296;2023-06-14T13:32:49;5.20;;;1.97;;
4397;SDS011;2213;49.720;7.296;2023-06-14T13:35:18;2.50;;;1.63;;
4397;SDS011;2213;49.720;7.296;2023-06-14T13:37:47;3.80;;;2.17;;
4397;SDS011;2213;49.720;7.296;2023-06-14T13:40:16;3.27;;;2.20;;
4397;SDS011;2213;49.720;7.296;2023-06-14T13:42:45;3.37;;;2.00;;
4397;SDS011;2213;49.720;7.296;2023-06-14T13:45:14;3.27;;;2.17;;
4397;SDS011;2213;49.720;7.296;2023-06-14T13:47:46;2.07;;;1.70;;
4397;SDS011;2213;49.720;7.296;2023-06-14T13:50:15;3.10;;;2.23;;
4397;SDS011;2213;49.720;7.296;2023-06-14T13:52:44;4.00;;;2.23;;
4397;SDS011;2213;49.720;7.296;2023-06-14T13:55:14;2.40;;;2.20;;
4397;SDS011;2213;49.720;7.296;2023-06-14T13:57:43;2.00;;;1.80;;
4397;SDS011;2213;49.720;7.296;2023-06-14T14:00:13;2.73;;;2.33;;
4397;SDS011;2213;49.720;7.296;2023-06-14T14:02:47;6.07;;;1.60;;
4397;SDS011;2213;49.720;7.296;2023-06-14T14:05:17;5.27;;;1.93;;
4397;SDS011;2213;49.720;7.296;2023-06-14T14:07:47;3.10;;;1.80;;
4397;SDS011;2213;49.720;7.296;2023-06-14T14:10:16;2.90;;;1.90;;
4397;SDS011;2213;49.720;7.296;2023-06-14T14:12:46;2.67;;;1.80;;
4397;SDS011;2213;49.720;7.296;2023-06-14T14:15:15;3.20;;;1.97;;
4397;SDS011;2213;49.720;7.296;2023-06-14T14:17:44;3.40;;;1.90;;
4397;SDS011;2213;49.720;7.296;2023-06-14T14:20:15;9.63;;;1.97;;
4397;SDS011;2213;49.720;7.296;2023-06-14T14:22:44;3.17;;;1.60;;
4397;SDS011;2213;49.720;7.296;2023-06-14T14:25:13;5.10;;;1.70;;
4397;SDS011;2213;49.720;7.296;2023-06-14T14:27:42;3.10;;;2.03;;
4397;SDS011;2213;49.720;7.296;2023-06-14T14:30:11;2.80;;;2.20;;
4397;SDS011;2213;49.720;7.296;2023-06-14T14:32:44;2.57;;;1.70;;
4397;SDS011;2213;49.720;7.296;2023-06-14T14:35:17;5.90;;;1.67;;
4397;SDS011;2213;49.720;7.296;2023-06-14T14:37:48;2.40;;;1.70;;
4397;SDS011;2213;49.720;7.296;2023-06-14T14:40:17;1.90;;;1.53;;
4397;SDS011;2213;49.720;7.296;2023-06-14T14:42:46;2.10;;;1.80;;
4397;SDS011;2213;49.720;7.296;2023-06-14T14:45:14;2.50;;;2.07;;
4397;SDS011;2213;49.720;7.296;2023-06-14T14:47:43;3.83;;;1.60;;
4397;SDS011;2213;49.720;7.296;2023-06-14T14:50:12;2.37;;;1.67;;
4397;SDS011;2213;49.720;7.296;2023-06-14T14:52:43;4.88;;;2.17;;
4397;SDS011;2213;49.720;7.296;2023-06-14T14:55:12;10.87;;;7.57;;
4397;SDS011;2213;49.720;7.296;2023-06-14T14:57:41;2.57;;;1.80;;
4397;SDS011;2213;49.720;7.296;2023-06-14T15:00:11;4.47;;;2.10;;
4397;SDS011;2213;49.720;7.296;2023-06-14T15:02:40;2.03;;;1.70;;
4397;SDS011;2213;49.720;7.296;2023-06-14T15:05:09;3.30;;;1.63;;
4397;SDS011;2213;49.720;7.296;2023-06-14T15:07:38;2.43;;;2.00;;
4397;SDS011;2213;49.720;7.296;2023-06-14T15:10:08;2.70;;;1.93;;
4397;SDS011;2213;49.720;7.296;2023-06-14T15:12:37;2.63;;;1.90;;
4397;SDS011;2213;49.720;7.296;2023-06-14T15:15:06;2.50;;;1.77;;
4397;SDS011;2213;49.720;7.296;2023-06-14T15:17:36;2.50;;;1.80;;
4397;SDS011;2213;49.720;7.296;2023-06-14T15:20:06;14.93;;;2.20;;
4397;SDS011;2213;49.720;7.296;2023-06-14T15:22:36;3.97;;;1.80;;
4397;SDS011;2213;49.720;7.296;2023-06-14T15:25:05;2.87;;;1.53;;
4397;SDS011;2213;49.720;7.296;2023-06-14T15:27:36;2.83;;;1.90;;
4397;SDS011;2213;49.720;7.296;2023-06-14T15:30:05;5.40;;;2.20;;
4397;SDS011;2213;49.720;7.296;2023-06-14T15:32:36;8.13;;;5.70;;
4397;SDS011;2213;49.720;7.296;2023-06-14T15:35:05;5.57;;;2.77;;
4397;SDS011;2213;49.720;7.296;2023-06-14T15:37:34;2.50;;;1.90;;
4397;SDS011;2213;49.720;7.296;2023-06-14T15:40:03;2.77;;;1.93;;
4397;SDS011;2213;49.720;7.296;2023-06-14T15:42:39;2.37;;;1.87;;
4397;SDS011;2213;49.720;7.296;2023-06-14T15:45:08;2.33;;;1.80;;
4397;SDS011;2213;49.720;7.296;2023-06-14T15:47:39;2.70;;;1.73;;